sensor_id;sensor_type;location;lat;lon;timestamp;pressure;altitude;pressure_sealevel;temperature;humidity
10466;BME280;5280;42.600;23.556;2023-05-11T00:00:45;93603.19;;;8.31;100.00
10466;BME280;5280;42.600;23.556;2023-05-11T00:03:12;93617.94;;;8.34;100.00
10466;BME280;5280;42.600;23.556;2023-05-11T00:05:40;93612.19;;;8.27;100.00
10466;BME280;5280;42.600;23.556;2023-05-11T00:08:07;93621.78;;;8.28;99.85
10466;BME280;5280;42.600;23.556;2023-05-11T00:10:34;93614.09;;;8.25;99.65
10466;BME280;5280;42.600;23.556;2023-05-11T00:13:01;93599.63;;;8.18;100.00
10466;BME280;5280;42.600;23.556;2023-05-11T00:15:28;93601.72;;;8.13;100.00
10466;BME280;5280;42.600;23.556;2023-05-11T00:17:54;93628.19;;;8.24;99.71
10466;BME280;5280;42.600;23.556;2023-05-11T00:20:21;93530.16;;;7.68;98.91
10466;BME280;5280;42.600;23.556;2023-05-11T00:22:50;93616.91;;;8.22;98.84
10466;BME280;5280;42.600;23.556;2023-05-11T00:25:19;93605.22;;;8.13;98.98
10466;BME280;5280;42.600;23.556;2023-05-11T00:27:45;93600.66;;;8.03;99.08
10466;BME280;5280;42.600;23.556;2023-05-11T00:30:13;93626.34;;;8.12;98.48
10466;BME280;5280;42.600;23.556;2023-05-11T00:32:41;93607.59;;;8.04;98.08
10466;BME280;5280;42.600;23.556;2023-05-11T00:35:08;93628.19;;;8.11;98.15
10466;BME280;5280;42.600;23.556;2023-05-11T00:37:38;93625.88;;;8.19;97.83
10466;BME280;5280;42.600;23.556;2023-05-11T00:40:08;93626.50;;;8.23;97.54
10466;BME280;5280;42.600;23.556;2023-05-11T00:42:35;93637.56;;;8.15;96.75
10466;BME280;5280;42.600;23.556;2023-05-11T00:45:02;93629.34;;;8.20;96.96
10466;BME280;5280;42.600;23.556;2023-05-11T00:47:29;93629.13;;;8.10;97.99
10466;BME280;5280;42.600;23.556;2023-05-11T00:49:56;93622.00;;;8.25;97.25
10466;BME280;5280;42.600;23.556;2023-05-11T00:52:23;93627.97;;;8.27;97.75
10466;BME280;5280;42.600;23.556;2023-05-11T00:54:50;93629.78;;;8.27;96.04
10466;BME280;5280;42.600;23.556;2023-05-11T00:57:21;93633.25;;;8.27;97.42
10466;BME280;5280;42.600;23.556;2023-05-11T00:59:48;93627.44;;;8.22;97.35
10466;BME280;5280;42.600;23.556;2023-05-11T01:02:15;93632.16;;;8.31;97.91
10466;BME280;5280;42.600;23.556;2023-05-11T01:04:43;93630.16;;;8.35;97.79
10466;BME280;5280;42.600;23.556;2023-05-11T01:07:13;93632.53;;;8.25;98.05
10466;BME280;5280;42.600;23.556;2023-05-11T01:09:47;93635.06;;;8.27;97.69
10466;BME280;5280;42.600;23.556;2023-05-11T01:12:26;93620.38;;;8.22;96.90
10466;BME280;5280;42.600;23.556;2023-05-11T01:15:00;93629.22;;;8.36;97.31
10466;BME280;5280;42.600;23.556;2023-05-11T01:17:35;93629.41;;;8.33;96.40
10466;BME280;5280;42.600;23.556;2023-05-11T01:20:07;93644.16;;;8.35;96.31
10466;BME280;5280;42.600;23.556;2023-05-11T01:22:47;93636.03;;;8.38;96.63
10466;BME280;5280;42.600;23.556;2023-05-11T01:25:27;93628.16;;;8.38;96.73
10466;BME280;5280;42.600;23.556;2023-05-11T01:28:14;93635.72;;;8.30;98.42
10466;BME280;5280;42.600;23.556;2023-05-11T01:30:48;93630.47;;;8.30;97.13
10466;BME280;5280;42.600;23.556;2023-05-11T01:33:20;93611.00;;;8.18;97.30
10466;BME280;5280;42.600;23.556;2023-05-11T01:35:52;93627.88;;;8.29;97.32
10466;BME280;5280;42.600;23.556;2023-05-11T01:38:20;93634.22;;;8.26;96.83
10466;BME280;5280;42.600;23.556;2023-05-11T01:40:53;93639.25;;;8.29;96.93
10466;BME280;5280;42.600;23.556;2023-05-11T01:43:23;93621.03;;;8.26;97.66
10466;BME280;5280;42.600;23.556;2023-05-11T01:45:56;93602.78;;;8.10;97.26
10466;BME280;5280;42.600;23.556;2023-05-11T01:48:27;93617.19;;;8.32;96.22
10466;BME280;5280;42.600;23.556;2023-05-11T01:50:59;93619.75;;;8.19;97.31
10466;BME280;5280;42.600;23.556;2023-05-11T01:53:28;93602.56;;;8.01;98.53
10466;BME280;5280;42.600;23.556;2023-05-11T01:55:58;93608.16;;;8.09;97.34
10466;BME280;5280;42.600;23.556;2023-05-11T01:58:26;93628.41;;;8.21;97.92
10466;BME280;5280;42.600;23.556;2023-05-11T02:00:55;93612.78;;;8.18;98.46
10466;BME280;5280;42.600;23.556;2023-05-11T02:03:25;93618.38;;;8.13;98.22
10466;BME280;5280;42.600;23.556;2023-05-11T02:05:53;93632.91;;;8.06;98.98
10466;BME280;5280;42.600;23.556;2023-05-11T02:08:22;93572.06;;;7.71;98.47
10466;BME280;5280;42.600;23.556;2023-05-11T02:10:50;93627.19;;;8.12;97.99
10466;BME280;5280;42.600;23.556;2023-05-11T02:13:19;93615.00;;;8.11;98.54
10466;BME280;5280;42.600;23.556;2023-05-11T02:15:50;93630.28;;;8.19;97.96
10466;BME280;5280;42.600;23.556;2023-05-11T02:18:20;93577.00;;;7.76;97.23
10466;BME280;5280;42.600;23.556;2023-05-11T02:20:47;93635.75;;;8.16;98.57
10466;BME280;5280;42.600;23.556;2023-05-11T02:23:16;93628.19;;;8.11;98.18
10466;BME280;5280;42.600;23.556;2023-05-11T02:25:44;93596.63;;;7.97;98.61
10466;BME280;5280;42.600;23.556;2023-05-11T02:28:11;93628.41;;;8.21;98.51
10466;BME280;5280;42.600;23.556;2023-05-11T02:30:43;93635.22;;;8.11;97.89
10466;BME280;5280;42.600;23.556;2023-05-11T02:33:15;93623.00;;;8.10;97.07
10466;BME280;5280;42.600;23.556;2023-05-11T02:35:45;93628.06;;;8.13;98.74
10466;BME280;5280;42.600;23.556;2023-05-11T02:38:14;93575.84;;;7.80;99.25
10466;BME280;5280;42.600;23.556;2023-05-11T02:40:45;93633.13;;;8.16;97.78
10466;BME280;5280;42.600;23.556;2023-05-11T02:43:23;93645.44;;;8.15;97.88
10466;BME280;5280;42.600;23.556;2023-05-11T02:49:14;93645.50;;;8.01;98.97
10466;BME280;5280;42.600;23.556;2023-05-11T02:51:44;93646.53;;;7.99;99.39
10466;BME280;5280;42.600;23.556;2023-05-11T02:54:14;93637.72;;;8.00;100.00
10466;BME280;5280;42.600;23.556;2023-05-11T02:56:41;93640.88;;;8.05;100.00
10466;BME280;5280;42.600;23.556;2023-05-11T02:59:09;93643.97;;;8.11;99.56
10466;BME280;5280;42.600;23.556;2023-05-11T03:01:37;93639.97;;;8.18;99.71
10466;BME280;5280;42.600;23.556;2023-05-11T03:04:04;93643.44;;;8.06;100.00
10466;BME280;5280;42.600;23.556;2023-05-11T03:06:32;93632.44;;;8.00;100.00
10466;BME280;5280;42.600;23.556;2023-05-11T03:09:01;93633.28;;;8.00;100.00
10466;BME280;5280;42.600;23.556;2023-05-11T03:11:28;93621.16;;;7.98;100.00
10466;BME280;5280;42.600;23.556;2023-05-11T03:13:56;93638.25;;;8.05;100.00
10466;BME280;5280;42.600;23.556;2023-05-11T03:16:24;93624.63;;;7.98;100.00
10466;BME280;5280;42.600;23.556;2023-05-11T03:18:53;93616.41;;;7.90;100.00
10466;BME280;5280;42.600;23.556;2023-05-11T03:21:21;93630.84;;;7.97;100.00
10466;BME280;5280;42.600;23.556;2023-05-11T03:23:51;93633.00;;;8.05;100.00
10466;BME280;5280;42.600;23.556;2023-05-11T03:26:22;93560.94;;;7.54;100.00
10466;BME280;5280;42.600;23.556;2023-05-11T03:28:54;93632.00;;;7.93;100.00
10466;BME280;5280;42.600;23.556;2023-05-11T03:31:22;93637.06;;;7.96;100.00
10466;BME280;5280;42.600;23.556;2023-05-11T03:33:49;93626.84;;;7.92;100.00
10466;BME280;5280;42.600;23.556;2023-05-11T03:36:16;93594.88;;;7.71;100.00
10466;BME280;5280;42.600;23.556;2023-05-11T03:38:45;93617.91;;;7.94;100.00
10466;BME280;5280;42.600;23.556;2023-05-11T03:41:14;93632.78;;;8.08;100.00
10466;BME280;5280;42.600;23.556;2023-05-11T03:43:44;93647.41;;;8.12;100.00
10466;BME280;5280;42.600;23.556;2023-05-11T03:46:13;93649.03;;;8.14;100.00
10466;BME280;5280;42.600;23.556;2023-05-11T03:48:43;93616.81;;;7.84;100.00
10466;BME280;5280;42.600;23.556;2023-05-11T03:51:10;93663.75;;;8.17;100.00
10466;BME280;5280;42.600;23.556;2023-05-11T03:53:38;93656.06;;;8.14;100.00
10466;BME280;5280;42.600;23.556;2023-05-11T03:56:05;93651.19;;;8.08;100.00
10466;BME280;5280;42.600;23.556;2023-05-11T03:58:32;93629.28;;;7.95;100.00
10466;BME280;5280;42.600;23.556;2023-05-11T04:01:05;93619.97;;;7.89;100.00
10466;BME280;5280;42.600;23.556;2023-05-11T04:03:32;93648.03;;;8.03;100.00
10466;BME280;5280;42.600;23.556;2023-05-11T04:06:00;93650.09;;;7.98;100.00
10466;BME280;5280;42.600;23.556;2023-05-11T04:08:27;93659.91;;;7.96;100.00
10466;BME280;5280;42.600;23.556;2023-05-11T04:10:54;93668.44;;;7.99;100.00
10466;BME280;5280;42.600;23.556;2023-05-11T04:13:21;93657.75;;;7.88;100.00
10466;BME280;5280;42.600;23.556;2023-05-11T04:15:50;93572.44;;;7.39;100.00
10466;BME280;5280;42.600;23.556;2023-05-11T04:18:19;93661.06;;;7.92;100.00
10466;BME280;5280;42.600;23.556;2023-05-11T04:20:45;93656.72;;;7.91;100.00
10466;BME280;5280;42.600;23.556;2023-05-11T04:23:14;93656.59;;;7.92;100.00
10466;BME280;5280;42.600;23.556;2023-05-11T04:25:40;93667.59;;;7.99;100.00
10466;BME280;5280;42.600;23.556;2023-05-11T04:28:07;93662.72;;;7.93;100.00
10466;BME280;5280;42.600;23.556;2023-05-11T04:30:34;93673.50;;;8.02;100.00
10466;BME280;5280;42.600;23.556;2023-05-11T04:33:01;93666.97;;;7.95;100.00
10466;BME280;5280;42.600;23.556;2023-05-11T04:35:31;93661.91;;;7.78;100.00
10466;BME280;5280;42.600;23.556;2023-05-11T04:37:57;93656.94;;;7.73;100.00
10466;BME280;5280;42.600;23.556;2023-05-11T04:40:24;93669.94;;;7.76;100.00
10466;BME280;5280;42.600;23.556;2023-05-11T04:42:52;93655.94;;;7.76;100.00
10466;BME280;5280;42.600;23.556;2023-05-11T04:45:19;93677.22;;;7.86;100.00
10466;BME280;5280;42.600;23.556;2023-05-11T04:47:45;93672.56;;;7.76;100.00
10466;BME280;5280;42.600;23.556;2023-05-11T04:50:12;93684.50;;;7.68;100.00
10466;BME280;5280;42.600;23.556;2023-05-11T04:52:40;93672.19;;;7.68;100.00
10466;BME280;5280;42.600;23.556;2023-05-11T04:55:08;93663.66;;;7.65;100.00
10466;BME280;5280;42.600;23.556;2023-05-11T04:57:35;93677.34;;;7.70;100.00
10466;BME280;5280;42.600;23.556;2023-05-11T05:00:04;93680.75;;;7.72;100.00
10466;BME280;5280;42.600;23.556;2023-05-11T05:02:31;93688.72;;;7.70;100.00
10466;BME280;5280;42.600;23.556;2023-05-11T05:04:58;93685.91;;;7.73;100.00
10466;BME280;5280;42.600;23.556;2023-05-11T05:07:25;93692.09;;;7.72;100.00
10466;BME280;5280;42.600;23.556;2023-05-11T05:09:53;93668.44;;;7.58;100.00
10466;BME280;5280;42.600;23.556;2023-05-11T05:12:20;93671.84;;;7.60;100.00
10466;BME280;5280;42.600;23.556;2023-05-11T05:14:47;93683.38;;;7.58;100.00
10466;BME280;5280;42.600;23.556;2023-05-11T05:17:14;93698.88;;;7.62;100.00
10466;BME280;5280;42.600;23.556;2023-05-11T05:19:41;93679.94;;;7.43;100.00
10466;BME280;5280;42.600;23.556;2023-05-11T05:22:08;93662.50;;;7.42;100.00
10466;BME280;5280;42.600;23.556;2023-05-11T05:24:35;93694.00;;;7.70;100.00
10466;BME280;5280;42.600;23.556;2023-05-11T05:27:03;93694.75;;;7.58;100.00
10466;BME280;5280;42.600;23.556;2023-05-11T05:29:30;93690.53;;;7.56;100.00
10466;BME280;5280;42.600;23.556;2023-05-11T05:31:57;93695.44;;;7.62;100.00
10466;BME280;5280;42.600;23.556;2023-05-11T05:34:24;93701.13;;;7.68;100.00
10466;BME280;5280;42.600;23.556;2023-05-11T05:36:51;93674.75;;;7.56;100.00
10466;BME280;5280;42.600;23.556;2023-05-11T05:39:18;93704.13;;;7.62;100.00
10466;BME280;5280;42.600;23.556;2023-05-11T05:41:45;93702.59;;;7.72;100.00
10466;BME280;5280;42.600;23.556;2023-05-11T05:44:14;93703.94;;;7.79;100.00
10466;BME280;5280;42.600;23.556;2023-05-11T05:46:40;93683.47;;;7.70;100.00
10466;BME280;5280;42.600;23.556;2023-05-11T05:49:07;93710.69;;;7.84;100.00
10466;BME280;5280;42.600;23.556;2023-05-11T05:51:34;93699.97;;;7.72;100.00
10466;BME280;5280;42.600;23.556;2023-05-11T05:54:01;93703.28;;;7.76;100.00
10466;BME280;5280;42.600;23.556;2023-05-11T05:56:28;93662.63;;;7.53;100.00
10466;BME280;5280;42.600;23.556;2023-05-11T05:58:56;93701.47;;;7.91;100.00
10466;BME280;5280;42.600;23.556;2023-05-11T06:01:25;93676.63;;;7.95;100.00
10466;BME280;5280;42.600;23.556;2023-05-11T06:03:52;93707.53;;;8.05;100.00
10466;BME280;5280;42.600;23.556;2023-05-11T06:06:20;93641.75;;;7.64;100.00
10466;BME280;5280;42.600;23.556;2023-05-11T06:08:46;93726.38;;;8.12;100.00
10466;BME280;5280;42.600;23.556;2023-05-11T06:11:13;93724.56;;;8.00;100.00
10466;BME280;5280;42.600;23.556;2023-05-11T06:13:41;93714.25;;;7.97;100.00
10466;BME280;5280;42.600;23.556;2023-05-11T06:16:08;93725.66;;;8.10;100.00
10466;BME280;5280;42.600;23.556;2023-05-11T06:18:36;93736.41;;;8.07;100.00
10466;BME280;5280;42.600;23.556;2023-05-11T06:21:03;93741.09;;;8.02;100.00
10466;BME280;5280;42.600;23.556;2023-05-11T06:23:30;93730.84;;;7.97;100.00
10466;BME280;5280;42.600;23.556;2023-05-11T06:25:56;93689.28;;;7.75;100.00
10466;BME280;5280;42.600;23.556;2023-05-11T06:28:23;93730.56;;;8.02;100.00
10466;BME280;5280;42.600;23.556;2023-05-11T06:30:50;93723.31;;;8.05;100.00
10466;BME280;5280;42.600;23.556;2023-05-11T06:33:17;93735.00;;;8.01;100.00
10466;BME280;5280;42.600;23.556;2023-05-11T06:35:47;93678.25;;;7.56;100.00
10466;BME280;5280;42.600;23.556;2023-05-11T06:38:14;93723.88;;;8.10;100.00
10466;BME280;5280;42.600;23.556;2023-05-11T06:40:40;93722.69;;;8.02;100.00
10466;BME280;5280;42.600;23.556;2023-05-11T06:43:09;93727.47;;;8.22;100.00
10466;BME280;5280;42.600;23.556;2023-05-11T06:45:36;93671.97;;;7.86;100.00
10466;BME280;5280;42.600;23.556;2023-05-11T06:48:03;93734.25;;;8.26;100.00
10466;BME280;5280;42.600;23.556;2023-05-11T06:50:30;93743.00;;;8.27;100.00
10466;BME280;5280;42.600;23.556;2023-05-11T06:52:58;93728.78;;;8.29;100.00
10466;BME280;5280;42.600;23.556;2023-05-11T06:55:25;93739.00;;;8.48;100.00
10466;BME280;5280;42.600;23.556;2023-05-11T06:57:54;93718.06;;;8.32;100.00
10466;BME280;5280;42.600;23.556;2023-05-11T07:00:21;93697.97;;;8.17;100.00
10466;BME280;5280;42.600;23.556;2023-05-11T07:02:49;93700.81;;;8.14;100.00
10466;BME280;5280;42.600;23.556;2023-05-11T07:07:51;93728.28;;;8.51;100.00
10466;BME280;5280;42.600;23.556;2023-05-11T07:10:22;93723.78;;;8.66;100.00
10466;BME280;5280;42.600;23.556;2023-05-11T07:12:49;93728.75;;;8.70;100.00
10466;BME280;5280;42.600;23.556;2023-05-11T07:15:28;93732.22;;;8.83;98.76
10466;BME280;5280;42.600;23.556;2023-05-11T07:17:55;93685.75;;;8.70;98.65
10466;BME280;5280;42.600;23.556;2023-05-11T07:20:39;93609.53;;;8.27;98.48
10466;BME280;5280;42.600;23.556;2023-05-11T08:41:19;93764.03;;;9.20;96.51
10466;BME280;5280;42.600;23.556;2023-05-11T08:43:50;93724.78;;;9.02;98.34
10466;BME280;5280;42.600;23.556;2023-05-11T08:46:20;93708.19;;;8.88;98.78
10466;BME280;5280;42.600;23.556;2023-05-11T08:48:51;93769.31;;;9.20;100.00
10466;BME280;5280;42.600;23.556;2023-05-11T08:51:18;93699.44;;;8.87;100.00
10466;BME280;5280;42.600;23.556;2023-05-11T08:53:45;93750.31;;;9.27;100.00
10466;BME280;5280;42.600;23.556;2023-05-11T08:56:12;93761.28;;;9.34;100.00
10466;BME280;5280;42.600;23.556;2023-05-11T08:58:42;93752.66;;;9.44;99.14
10466;BME280;5280;42.600;23.556;2023-05-11T09:01:09;93763.63;;;9.51;98.29
10466;BME280;5280;42.600;23.556;2023-05-11T09:03:38;93726.06;;;9.35;99.88
10466;BME280;5280;42.600;23.556;2023-05-11T09:06:07;93760.69;;;9.56;98.59
10466;BME280;5280;42.600;23.556;2023-05-11T09:08:37;93765.94;;;9.56;98.71
10466;BME280;5280;42.600;23.556;2023-05-11T09:11:05;93752.09;;;9.52;98.53
10466;BME280;5280;42.600;23.556;2023-05-11T09:13:32;93738.72;;;9.42;98.52
10466;BME280;5280;42.600;23.556;2023-05-11T09:16:00;93736.59;;;9.47;97.92
10466;BME280;5280;42.600;23.556;2023-05-11T09:18:28;93753.91;;;9.64;97.13
10466;BME280;5280;42.600;23.556;2023-05-11T09:20:54;93736.81;;;9.57;96.04
10466;BME280;5280;42.600;23.556;2023-05-11T09:23:23;93699.66;;;9.47;96.01
10466;BME280;5280;42.600;23.556;2023-05-11T09:25:54;93755.06;;;9.85;94.87
10466;BME280;5280;42.600;23.556;2023-05-11T09:28:22;93732.66;;;9.78;96.25
10466;BME280;5280;42.600;23.556;2023-05-11T09:30:50;93734.97;;;9.83;96.47
10466;BME280;5280;42.600;23.556;2023-05-11T09:33:23;93700.28;;;9.64;96.07
10466;BME280;5280;42.600;23.556;2023-05-11T09:35:50;93754.03;;;10.12;94.63
10466;BME280;5280;42.600;23.556;2023-05-11T09:38:17;93735.88;;;10.07;93.36
10466;BME280;5280;42.600;23.556;2023-05-11T09:40:52;93747.50;;;10.17;92.92
10466;BME280;5280;42.600;23.556;2023-05-11T09:43:24;93740.94;;;10.23;90.19
10466;BME280;5280;42.600;23.556;2023-05-11T09:45:52;93744.66;;;10.44;88.63
10466;BME280;5280;42.600;23.556;2023-05-11T09:48:26;93741.41;;;10.41;88.73
10466;BME280;5280;42.600;23.556;2023-05-11T09:50:59;93727.34;;;10.40;87.97
10466;BME280;5280;42.600;23.556;2023-05-11T09:53:37;93711.03;;;10.46;89.63
10466;BME280;5280;42.600;23.556;2023-05-11T09:56:08;93716.94;;;10.73;87.71
10466;BME280;5280;42.600;23.556;2023-05-11T09:58:44;93711.06;;;10.81;86.80
10466;BME280;5280;42.600;23.556;2023-05-11T10:01:12;93726.00;;;10.93;86.37
10466;BME280;5280;42.600;23.556;2023-05-11T10:03:51;93720.06;;;11.13;86.37
10466;BME280;5280;42.600;23.556;2023-05-11T10:06:19;93708.88;;;11.10;85.22
10466;BME280;5280;42.600;23.556;2023-05-11T10:08:47;93713.31;;;11.09;83.75
10466;BME280;5280;42.600;23.556;2023-05-11T10:11:16;93717.72;;;10.98;85.41
10466;BME280;5280;42.600;23.556;2023-05-11T10:13:52;93708.50;;;11.03;85.35
10466;BME280;5280;42.600;23.556;2023-05-11T10:16:19;93644.38;;;10.43;85.40
10466;BME280;5280;42.600;23.556;2023-05-11T10:18:53;93697.31;;;11.00;86.10
10466;BME280;5280;42.600;23.556;2023-05-11T10:21:21;93687.13;;;11.17;84.37
10466;BME280;5280;42.600;23.556;2023-05-11T10:23:48;93692.31;;;11.30;84.23
10466;BME280;5280;42.600;23.556;2023-05-11T10:26:18;93609.19;;;10.88;85.23
10466;BME280;5280;42.600;23.556;2023-05-11T10:28:46;93689.34;;;11.68;83.19
10466;BME280;5280;42.600;23.556;2023-05-11T10:31:13;93688.03;;;11.74;81.27
10466;BME280;5280;42.600;23.556;2023-05-11T10:33:49;93693.19;;;11.86;81.33
10466;BME280;5280;42.600;23.556;2023-05-11T10:36:18;93677.56;;;11.94;80.31
10466;BME280;5280;42.600;23.556;2023-05-11T10:38:45;93647.69;;;11.81;78.91
10466;BME280;5280;42.600;23.556;2023-05-11T10:41:29;93684.13;;;12.22;79.57
10466;BME280;5280;42.600;23.556;2023-05-11T10:44:15;93667.47;;;12.31;77.32
10466;BME280;5280;42.600;23.556;2023-05-11T10:47:07;93617.41;;;12.17;79.58
10466;BME280;5280;42.600;23.556;2023-05-11T10:49:57;93678.56;;;12.68;77.42
10466;BME280;5280;42.600;23.556;2023-05-11T10:52:47;93681.25;;;12.89;74.86
10466;BME280;5280;42.600;23.556;2023-05-11T10:55:28;93608.09;;;12.34;74.69
10466;BME280;5280;42.600;23.556;2023-05-11T10:58:05;93686.28;;;12.92;73.25
10466;BME280;5280;42.600;23.556;2023-05-11T11:01:13;93662.97;;;12.95;76.80
10466;BME280;5280;42.600;23.556;2023-05-11T11:03:55;93662.84;;;13.29;74.28
10466;BME280;5280;42.600;23.556;2023-05-11T11:06:22;93671.72;;;13.39;73.04
10466;BME280;5280;42.600;23.556;2023-05-11T11:08:58;93655.47;;;13.12;69.92
10466;BME280;5280;42.600;23.556;2023-05-11T11:11:34;93655.78;;;13.18;72.65
10466;BME280;5280;42.600;23.556;2023-05-11T11:14:02;93668.66;;;13.23;72.07
10466;BME280;5280;42.600;23.556;2023-05-11T11:16:31;93673.13;;;13.22;73.08
10466;BME280;5280;42.600;23.556;2023-05-11T11:19:34;93675.34;;;13.17;71.45
10466;BME280;5280;42.600;23.556;2023-05-11T11:22:02;93656.47;;;13.20;72.44
10466;BME280;5280;42.600;23.556;2023-05-11T11:24:45;93667.16;;;13.30;72.45
10466;BME280;5280;42.600;23.556;2023-05-11T11:27:13;93660.94;;;13.41;69.69
10466;BME280;5280;42.600;23.556;2023-05-11T11:30:14;93675.31;;;13.59;68.73
10466;BME280;5280;42.600;23.556;2023-05-11T11:32:41;93677.16;;;13.68;67.67
10466;BME280;5280;42.600;23.556;2023-05-11T11:35:44;93678.97;;;13.67;69.81
10466;BME280;5280;42.600;23.556;2023-05-11T11:38:14;93656.41;;;13.52;68.36
10466;BME280;5280;42.600;23.556;2023-05-11T11:40:43;93668.34;;;13.67;68.97
10466;BME280;5280;42.600;23.556;2023-05-11T11:43:11;93660.28;;;13.78;68.96
10466;BME280;5280;42.600;23.556;2023-05-11T11:45:39;93666.97;;;13.73;67.73
10466;BME280;5280;42.600;23.556;2023-05-11T11:48:09;93660.75;;;13.84;67.29
10466;BME280;5280;42.600;23.556;2023-05-11T11:57:00;93647.81;;;13.69;67.92
10466;BME280;5280;42.600;23.556;2023-05-11T11:59:27;93649.47;;;13.70;65.83
10466;BME280;5280;42.600;23.556;2023-05-11T12:01:54;93671.69;;;13.60;65.45
10466;BME280;5280;42.600;23.556;2023-05-11T12:04:51;93664.72;;;13.38;67.75
10466;BME280;5280;42.600;23.556;2023-05-11T12:07:23;93662.50;;;13.22;70.96
10466;BME280;5280;42.600;23.556;2023-05-11T12:09:51;93676.81;;;13.31;70.30
10466;BME280;5280;42.600;23.556;2023-05-11T12:12:19;93632.78;;;13.08;70.79
10466;BME280;5280;42.600;23.556;2023-05-11T12:14:47;93659.78;;;13.33;71.40
10466;BME280;5280;42.600;23.556;2023-05-11T12:17:23;93559.41;;;12.76;71.25
10466;BME280;5280;42.600;23.556;2023-05-11T12:19:52;93652.31;;;13.48;71.40
10466;BME280;5280;42.600;23.556;2023-05-11T12:22:23;93658.69;;;13.66;71.27
10466;BME280;5280;42.600;23.556;2023-05-11T12:24:50;93647.84;;;13.49;70.09
10466;BME280;5280;42.600;23.556;2023-05-11T12:27:18;93575.00;;;13.11;69.20
10466;BME280;5280;42.600;23.556;2023-05-11T12:29:48;93614.97;;;13.40;70.93
10466;BME280;5280;42.600;23.556;2023-05-11T12:32:24;93545.88;;;13.00;70.00
10466;BME280;5280;42.600;23.556;2023-05-11T12:35:02;93524.59;;;12.90;69.67
10466;BME280;5280;42.600;23.556;2023-05-11T12:37:30;93627.50;;;13.59;69.97
10466;BME280;5280;42.600;23.556;2023-05-11T12:40:11;93616.88;;;13.59;68.70
10466;BME280;5280;42.600;23.556;2023-05-11T12:42:48;93628.59;;;13.56;68.02
10466;BME280;5280;42.600;23.556;2023-05-11T12:45:17;93630.75;;;13.42;69.93
10466;BME280;5280;42.600;23.556;2023-05-11T12:47:44;93622.47;;;13.35;70.90
10466;BME280;5280;42.600;23.556;2023-05-11T12:50:11;93558.03;;;13.03;70.81
10466;BME280;5280;42.600;23.556;2023-05-11T12:52:38;93614.22;;;13.28;70.91
10466;BME280;5280;42.600;23.556;2023-05-11T12:55:08;93603.53;;;13.40;70.48
10466;BME280;5280;42.600;23.556;2023-05-11T13:11:22;93506.13;;;13.40;65.78
10466;BME280;5280;42.600;23.556;2023-05-11T13:14:14;93553.25;;;14.07;68.74
10466;BME280;5280;42.600;23.556;2023-05-11T13:20:35;93579.69;;;14.18;64.21
10466;BME280;5280;42.600;23.556;2023-05-11T13:26:29;93539.81;;;13.89;65.25
10466;BME280;5280;42.600;23.556;2023-05-11T13:28:59;93578.53;;;14.01;64.66
10466;BME280;5280;42.600;23.556;2023-05-11T13:31:54;93491.63;;;13.44;66.34
10466;BME280;5280;42.600;23.556;2023-05-11T13:34:38;93585.13;;;14.07;65.56
10466;BME280;5280;42.600;23.556;2023-05-11T13:37:10;93540.16;;;13.75;67.60
10466;BME280;5280;42.600;23.556;2023-05-11T13:39:47;93460.56;;;13.35;68.33
10466;BME280;5280;42.600;23.556;2023-05-11T13:42:33;93582.97;;;13.82;66.66
10466;BME280;5280;42.600;23.556;2023-05-11T13:45:13;93535.22;;;13.51;70.69
10466;BME280;5280;42.600;23.556;2023-05-11T13:47:56;93583.41;;;13.87;71.19
10466;BME280;5280;42.600;23.556;2023-05-11T13:50:52;93481.41;;;13.09;67.87
10466;BME280;5280;42.600;23.556;2023-05-11T13:53:44;93523.50;;;13.14;65.73
10466;BME280;5280;42.600;23.556;2023-05-11T13:56:30;93508.53;;;13.13;68.32
10466;BME280;5280;42.600;23.556;2023-05-11T13:59:08;93579.41;;;13.62;69.88
10466;BME280;5280;42.600;23.556;2023-05-11T14:04:42;93592.28;;;13.66;71.33
10466;BME280;5280;42.600;23.556;2023-05-11T14:07:28;93583.41;;;13.47;70.28
10466;BME280;5280;42.600;23.556;2023-05-11T14:10:14;93574.47;;;13.48;69.95
10466;BME280;5280;42.600;23.556;2023-05-11T14:13:06;93489.09;;;12.82;73.13
10466;BME280;5280;42.600;23.556;2023-05-11T14:15:50;93572.31;;;13.32;70.68
10466;BME280;5280;42.600;23.556;2023-05-11T14:18:27;93467.56;;;12.75;70.54
10466;BME280;5280;42.600;23.556;2023-05-11T14:21:16;93572.31;;;13.32;71.44
10466;BME280;5280;42.600;23.556;2023-05-11T14:23:45;93526.59;;;12.98;73.68
10466;BME280;5280;42.600;23.556;2023-05-11T14:26:50;93570.19;;;13.26;73.78
10466;BME280;5280;42.600;23.556;2023-05-11T14:29:26;93574.22;;;13.20;72.09
10466;BME280;5280;42.600;23.556;2023-05-11T14:31:59;93562.81;;;13.09;71.99
10466;BME280;5280;42.600;23.556;2023-05-11T14:37:27;93465.16;;;12.42;72.95
10466;BME280;5280;42.600;23.556;2023-05-11T14:39:58;93470.06;;;12.46;73.79
10466;BME280;5280;42.600;23.556;2023-05-11T14:42:31;93460.13;;;12.39;73.57
10466;BME280;5280;42.600;23.556;2023-05-11T14:45:11;93537.34;;;12.76;73.80
10466;BME280;5280;42.600;23.556;2023-05-11T14:47:55;93592.34;;;12.94;73.91
10466;BME280;5280;42.600;23.556;2023-05-11T14:50:47;93505.75;;;12.42;76.56
10466;BME280;5280;42.600;23.556;2023-05-11T14:53:40;93570.34;;;12.83;76.85
10466;BME280;5280;42.600;23.556;2023-05-11T14:56:14;93511.84;;;12.33;76.11
10466;BME280;5280;42.600;23.556;2023-05-11T14:58:44;93508.91;;;12.36;76.19
10466;BME280;5280;42.600;23.556;2023-05-11T15:01:17;93498.19;;;12.17;75.00
10466;BME280;5280;42.600;23.556;2023-05-11T15:03:46;93504.22;;;12.19;74.53
10466;BME280;5280;42.600;23.556;2023-05-11T15:06:33;93580.69;;;12.65;74.81
10466;BME280;5280;42.600;23.556;2023-05-11T15:09:42;93536.03;;;12.40;76.87
10466;BME280;5280;42.600;23.556;2023-05-11T15:12:16;93574.03;;;12.71;76.68
10466;BME280;5280;42.600;23.556;2023-05-11T15:14:46;93530.91;;;12.27;75.97
10466;BME280;5280;42.600;23.556;2023-05-11T15:17:13;93570.56;;;12.49;76.16
10466;BME280;5280;42.600;23.556;2023-05-11T15:19:41;93567.94;;;12.38;76.33
10466;BME280;5280;42.600;23.556;2023-05-11T15:22:08;93566.16;;;12.39;77.72